Time;durP1;ratioP1;P1;durP2;ratioP2;P2;SDS_P1;SDS_P2;PMS_P1;PMS_P2;Temp;Humidity;BMP_temperature;BMP_pressure;BME280_temperature;BME280_humidity;BME280_pressure;Samples;Min_cycle;Max_cycle;Signal;HPM_P1;HPM_P2
2022/06/13 00:01:34;;;;;;;;;;;;;;;-144.99;100.00;52350.25;5050346;28;19928;-57
2022/06/13 00:04:00;;;;;;;;;;;;;;;-144.99;100.00;52342.09;5052621;28;20016;-57
2022/06/13 00:06:27;;;;;;;;;;;;;;;-144.99;100.00;52305.41;5047759;28;19945;-57
2022/06/13 00:08:53;;;;;;;;;;;;;;;-144.99;100.00;52333.94;5054174;28;19996;-60
2022/06/13 00:11:21;;;;;;;;;;;;;;;-144.99;100.00;52305.41;5052674;28;20019;-60
2022/06/13 00:13:49;;;;;;;;;;;;;;;-144.99;100.00;52333.94;5050795;28;19961;-61
2022/06/13 00:16:17;;;;;;;;;;;;;;;-144.99;100.00;52317.66;5051537;28;20555;-58
2022/06/13 00:18:47;;;;;;;;;;;;;;;-144.99;100.00;52342.09;5049743;28;19924;-59
2022/06/13 00:21:14;;;;;;;;;;;;;;;-144.99;100.00;52325.81;5053327;28;19925;-59
2022/06/13 00:23:40;;;;;;;;;;;;;;;-144.99;100.00;52338.03;5043636;28;20014;-59
2022/06/13 00:26:07;;;;;;;;;;;;;;;-144.99;100.00;52329.88;5043026;28;19992;-59
2022/06/13 00:28:33;;;;;;;;;;;;;;;-144.99;100.00;52344.16;5049955;28;19939;-60
2022/06/13 00:31:00;;;;;;;;;;;;;;;-144.99;100.00;52293.19;5050730;28;19929;-60
2022/06/13 00:33:27;;;;;;;;;;;;;;;-144.99;100.00;52346.19;5046714;28;19932;-58
2022/06/13 00:35:54;;;;;;;;;;;;;;;-144.99;100.00;52313.56;5049911;28;20038;-57
2022/06/13 00:38:20;;;;;;;;;;;;;;;-144.99;100.00;52342.09;5047428;28;19924;-57
2022/06/13 00:40:48;;;;;;;;;;;;;;;-144.99;100.00;52309.50;5040003;28;19960;-57
2022/06/13 00:43:14;;;;;;;;;;;;;;;-144.99;100.00;52338.03;5043285;28;19969;-58
2022/06/13 00:45:41;;;;;;;;;;;;;;;-144.99;100.00;52305.41;5042763;28;19925;-58
2022/06/13 00:48:12;;;;;;;;;;;;;;;-144.99;100.00;52360.44;5045853;28;20043;-62
2022/06/13 00:50:45;;;;;;;;;;;;;;;-144.99;100.00;52317.66;5041485;28;20255;-63
2022/06/13 00:53:14;;;;;;;;;;;;;;;-144.99;100.00;52293.19;5043137;28;19963;-63
2022/06/13 00:55:44;;;;;;;;;;;;;;;-144.99;100.00;52301.34;5042270;28;20087;-61
2022/06/13 00:58:11;;;;;;;;;;;;;;;-144.99;100.00;52309.50;5044200;28;19925;-62
2022/06/13 01:00:38;;;;;;;;;;;;;;;-144.99;100.00;52336.00;5043108;28;20008;-63
2022/06/13 01:03:05;;;;;;;;;;;;;;;-144.99;100.00;52309.50;5045713;28;19948;-61
2022/06/13 01:05:34;;;;;;;;;;;;;;;-144.99;100.00;52325.81;5042202;28;20020;-62
2022/06/13 01:08:03;;;;;;;;;;;;;;;-144.99;100.00;52352.28;5045848;28;20522;-62
2022/06/13 01:13:13;;;;;;;;;;;;;;;-144.99;100.00;52325.81;5042893;28;19936;-61
2022/06/13 01:15:48;;;;;;;;;;;;;;;-144.99;100.00;52309.50;5040984;28;19931;-61
2022/06/13 01:18:25;;;;;;;;;;;;;;;-144.99;100.00;52354.34;5044028;28;19960;-62
2022/06/13 01:20:58;;;;;;;;;;;;;;;-144.99;100.00;52346.19;5044159;28;20306;-63
2022/06/13 01:23:43;;;;;;;;;;;;;;;-144.99;100.00;52350.25;5044043;28;20369;-63
2022/06/13 01:26:32;;;;;;;;;;;;;;;-144.99;100.00;52358.41;5043481;28;19925;-63
2022/06/13 01:31:48;;;;;;;;;;;;;;;-144.99;100.00;52338.03;5097070;27;19924;-63
2022/06/13 01:34:22;;;;;;;;;;;;;;;-144.99;100.00;52297.25;5082375;28;19966;-62
2022/06/13 01:36:53;;;;;;;;;;;;;;;-144.99;100.00;52370.63;5083055;28;20353;-62
2022/06/13 01:39:29;;;;;;;;;;;;;;;-144.99;100.00;52358.41;5081093;28;20015;-61
2022/06/13 01:42:02;;;;;;;;;;;;;;;-144.99;100.00;52325.81;5078240;28;20051;-61
2022/06/13 01:44:35;;;;;;;;;;;;;;;-144.99;100.00;52338.03;5081542;28;19937;-62
2022/06/13 01:47:05;;;;;;;;;;;;;;;-144.99;100.00;52333.94;5081895;28;20336;-62
2022/06/13 01:49:34;;;;;;;;;;;;;;;-144.99;100.00;52342.09;5081096;28;19925;-63
2022/06/13 01:52:04;;;;;;;;;;;;;;;-144.99;100.00;52325.81;5080694;28;19974;-61
2022/06/13 01:54:35;;;;;;;;;;;;;;;-144.99;100.00;52329.88;5082386;28;20027;-61
2022/06/13 01:57:10;;;;;;;;;;;;;;;-144.99;100.00;52378.78;5085777;28;19924;-61
2022/06/13 01:59:42;;;;;;;;;;;;;;;-144.99;100.00;52333.94;5085999;28;20031;-61
2022/06/13 02:02:11;;;;;;;;;;;;;;;-144.99;100.00;52352.28;5077110;28;20324;-60
2022/06/13 02:04:40;;;;;;;;;;;;;;;-144.99;100.00;52319.69;5079053;28;20440;-61
2022/06/13 02:07:11;;;;;;;;;;;;;;;-144.99;100.00;52323.75;5085603;28;19925;-61
2022/06/13 02:09:40;;;;;;;;;;;;;;;-144.99;100.00;52342.09;5084520;28;19924;-60
2022/06/13 02:12:07;;;;;;;;;;;;;;;-144.99;100.00;52333.94;5083815;28;19963;-60
2022/06/13 02:14:36;;;;;;;;;;;;;;;-144.99;100.00;52342.09;5077362;28;20400;-60
2022/06/13 02:17:04;;;;;;;;;;;;;;;-144.99;100.00;52299.31;5081574;28;19936;-60
2022/06/13 02:19:34;;;;;;;;;;;;;;;-144.99;100.00;52333.94;5084864;28;19990;-60
2022/06/13 02:22:05;;;;;;;;;;;;;;;-144.99;100.00;52350.25;5083740;28;19959;-60
2022/06/13 02:24:34;;;;;;;;;;;;;;;-144.99;100.00;52313.56;5085009;28;20023;-60
2022/06/13 02:27:02;;;;;;;;;;;;;;;-144.99;100.00;52338.03;5084144;28;19967;-61
2022/06/13 02:29:31;;;;;;;;;;;;;;;-144.99;100.00;52319.69;5085115;28;19993;-61
2022/06/13 02:32:00;;;;;;;;;;;;;;;-144.99;100.00;52280.97;5082560;28;20413;-60
2022/06/13 02:34:31;;;;;;;;;;;;;;;-144.99;100.00;52340.06;5073988;28;20092;-59
2022/06/13 02:37:03;;;;;;;;;;;;;;;-144.99;100.00;52342.09;5081797;28;20026;-59
2022/06/13 02:39:32;;;;;;;;;;;;;;;-144.99;100.00;52313.56;5081915;28;20360;-62
2022/06/13 02:42:01;;;;;;;;;;;;;;;-144.99;100.00;52313.56;5073299;28;20300;-59
2022/06/13 02:44:31;;;;;;;;;;;;;;;-144.99;100.00;52297.25;5067594;28;19959;-60
2022/06/13 02:47:00;;;;;;;;;;;;;;;-144.99;100.00;52354.34;5067128;28;19931;-60
2022/06/13 02:49:28;;;;;;;;;;;;;;;-144.99;100.00;52344.16;5068566;28;20015;-60
2022/06/13 02:51:59;;;;;;;;;;;;;;;-144.99;100.00;52325.81;5068313;28;20007;-60
2022/06/13 02:54:32;;;;;;;;;;;;;;;-144.99;100.00;52325.81;5061581;28;20026;-60
2022/06/13 02:59:57;;;;;;;;;;;;;;;-144.99;100.00;52323.75;5067409;28;20804;-60
2022/06/13 03:02:28;;;;;;;;;;;;;;;-144.99;100.00;52313.56;5063970;28;19950;-60
2022/06/13 03:04:58;;;;;;;;;;;;;;;-144.99;100.00;52285.03;5064539;28;20003;-60
2022/06/13 03:07:27;;;;;;;;;;;;;;;-144.99;100.00;52346.19;5067449;28;19928;-60
2022/06/13 03:09:58;;;;;;;;;;;;;;;-144.99;100.00;52268.72;5066198;28;19929;-60
2022/06/13 03:12:29;;;;;;;;;;;;;;;-144.99;100.00;52342.09;5067768;28;19978;-62
2022/06/13 03:14:58;;;;;;;;;;;;;;;-144.99;100.00;52327.84;5062559;28;19932;-61
2022/06/13 03:17:33;;;;;;;;;;;;;;;-144.99;100.00;52289.13;5066750;28;19968;-61
2022/06/13 03:20:05;;;;;;;;;;;;;;;-144.99;100.00;52309.50;5064990;28;19972;-61
2022/06/13 03:22:38;;;;;;;;;;;;;;;-144.99;100.00;52333.94;5064140;28;19997;-61
2022/06/13 03:25:10;;;;;;;;;;;;;;;-144.99;100.00;52311.53;5062207;28;20409;-61
2022/06/13 03:27:40;;;;;;;;;;;;;;;-144.99;100.00;52325.81;5066129;28;20471;-61
2022/06/13 03:30:08;;;;;;;;;;;;;;;-144.99;100.00;52295.22;5064340;28;20064;-61
2022/06/13 03:32:38;;;;;;;;;;;;;;;-144.99;100.00;52297.25;5086879;22;20293;-66
2022/06/13 03:35:09;;;;;;;;;;;;;;;-144.99;100.00;52325.81;5087997;28;19925;-67
2022/06/13 03:37:38;;;;;;;;;;;;;;;-144.99;100.00;52276.88;5081143;28;20074;-67
2022/06/13 03:40:06;;;;;;;;;;;;;;;-144.99;100.00;52297.25;5069700;28;19924;-68
2022/06/13 03:42:39;;;;;;;;;;;;;;;-144.99;100.00;52317.66;5064874;28;20031;-67
2022/06/13 03:45:08;;;;;;;;;;;;;;;-144.99;100.00;52293.19;5065324;28;19930;-68
2022/06/13 03:47:37;;;;;;;;;;;;;;;-144.99;100.00;52293.19;5068178;28;20019;-66
2022/06/13 03:50:09;;;;;;;;;;;;;;;-144.99;100.00;52321.72;5067480;28;19967;-68
2022/06/13 03:52:38;;;;;;;;;;;;;;;-144.99;100.00;52342.09;5064992;28;19982;-68
2022/06/13 03:55:07;;;;;;;;;;;;;;;-144.99;100.00;52289.13;5066951;28;19970;-66
2022/06/13 03:57:37;;;;;;;;;;;;;;;-144.99;100.00;52276.88;5068542;28;20452;-69
2022/06/13 04:00:08;;;;;;;;;;;;;;;-144.99;100.00;52313.56;5065865;28;20015;-69
2022/06/13 04:02:35;;;;;;;;;;;;;;;-144.99;100.00;52313.56;5065267;28;19924;-69
2022/06/13 04:05:02;;;;;;;;;;;;;;;-144.99;100.00;52285.03;5066891;28;20361;-70
2022/06/13 04:07:30;;;;;;;;;;;;;;;-144.99;100.00;52293.19;5069136;28;20381;-67
2022/06/13 04:09:58;;;;;;;;;;;;;;;-144.99;100.00;52276.88;5067303;28;19936;-66
2022/06/13 04:12:33;;;;;;;;;;;;;;;-144.99;100.00;52285.03;5068289;28;20025;-65
2022/06/13 04:15:18;;;;;;;;;;;;;;;-144.99;100.00;52317.66;5063478;28;20177;-62
2022/06/13 04:17:51;;;;;;;;;;;;;;;-144.99;100.00;52313.56;5067363;28;19938;-64
2022/06/13 04:20:23;;;;;;;;;;;;;;;-144.99;100.00;52329.88;5067572;28;20224;-67
2022/06/13 04:22:53;;;;;;;;;;;;;;;-144.99;100.00;52305.41;5063818;28;20007;-67
2022/06/13 04:25:24;;;;;;;;;;;;;;;-144.99;100.00;52289.13;5067671;28;19925;-67
2022/06/13 04:27:54;;;;;;;;;;;;;;;-144.99;100.00;52309.50;5067738;28;20211;-67
2022/06/13 04:30:25;;;;;;;;;;;;;;;-144.99;100.00;52287.06;5066906;28;19967;-67
2022/06/13 04:32:54;;;;;;;;;;;;;;;-144.99;100.00;52317.66;5063506;28;19924;-67
2022/06/13 04:35:21;;;;;;;;;;;;;;;-144.99;100.00;52338.03;5069388;28;19929;-67
2022/06/13 04:37:48;;;;;;;;;;;;;;;-144.99;100.00;52305.41;5066405;28;20019;-67
2022/06/13 04:40:18;;;;;;;;;;;;;;;-144.99;100.00;52250.38;5066238;28;20039;-66
2022/06/13 04:42:46;;;;;;;;;;;;;;;-144.99;100.00;52309.50;5065833;28;20023;-66
2022/06/13 04:45:19;;;;;;;;;;;;;;;-144.99;100.00;52305.41;5067248;28;20011;-71
2022/06/13 04:47:48;;;;;;;;;;;;;;;-144.99;100.00;52321.72;5069417;28;20381;-69
2022/06/13 04:50:16;;;;;;;;;;;;;;;-144.99;100.00;52268.72;5067791;28;19981;-70
2022/06/13 04:52:45;;;;;;;;;;;;;;;-144.99;100.00;52297.25;5064218;28;20393;-70
2022/06/13 04:55:16;;;;;;;;;;;;;;;-144.99;100.00;52315.59;5065876;28;20381;-69
2022/06/13 04:57:42;;;;;;;;;;;;;;;-144.99;100.00;52309.50;5066172;28;19930;-70
2022/06/13 05:00:10;;;;;;;;;;;;;;;-144.99;100.00;52317.66;5066182;28;19970;-70
2022/06/13 05:02:39;;;;;;;;;;;;;;;-144.99;100.00;52287.06;5066697;28;19979;-73
2022/06/13 05:05:09;;;;;;;;;;;;;;;-144.99;100.00;52289.13;4365477;28;10000735;-73
2022/06/13 05:07:35;;;;;;;;;;;;;;;-144.99;100.00;52293.19;5062763;28;20007;-73
2022/06/13 05:10:04;;;;;;;;;;;;;;;-144.99;100.00;52280.97;5064658;28;20689;-74
2022/06/13 05:12:32;;;;;;;;;;;;;;;-144.99;100.00;52230.00;5072117;28;20385;-73
2022/06/13 05:15:03;;;;;;;;;;;;;;;-144.99;100.00;52289.13;5080215;28;20407;-73
2022/06/13 05:17:49;;;;;;;;;;;;;;;-144.99;100.00;52262.63;5070727;28;20042;-73
2022/06/13 05:20:19;;;;;;;;;;;;;;;-144.99;100.00;52313.56;5074853;28;19974;-73
2022/06/13 05:23:02;;;;;;;;;;;;;;;-144.99;100.00;52260.56;5074138;28;20253;-73
2022/06/13 05:25:37;;;;;;;;;;;;;;;-144.99;100.00;52283.00;5070979;28;20015;-74
2022/06/13 05:28:03;;;;;;;;;;;;;;;-144.99;100.00;52256.50;5072786;28;20015;-74
2022/06/13 05:30:30;;;;;;;;;;;;;;;-144.99;100.00;52283.00;5070478;28;19934;-71
2022/06/13 05:32:57;;;;;;;;;;;;;;;-144.99;100.00;52276.88;5078199;28;20450;-72
2022/06/13 05:35:27;;;;;;;;;;;;;;;-144.99;100.00;52268.72;5069198;28;20015;-72
2022/06/13 05:37:55;;;;;;;;;;;;;;;-144.99;100.00;52305.41;5071197;28;19939;-72
2022/06/13 05:40:22;;;;;;;;;;;;;;;-144.99;100.00;52289.13;5068268;28;19938;-72
2022/06/13 05:42:49;;;;;;;;;;;;;;;-144.99;100.00;52278.91;5072242;28;19928;-72
2022/06/13 05:45:17;;;;;;;;;;;;;;;-144.99;100.00;52291.16;5071572;28;19924;-72
2022/06/13 05:47:44;;;;;;;;;;;;;;;-144.99;100.00;52236.13;5074027;28;20012;-72
2022/06/13 05:50:14;;;;;;;;;;;;;;;-144.99;100.00;52276.88;5070732;28;19967;-71
2022/06/13 05:52:42;;;;;;;;;;;;;;;-144.99;100.00;52260.56;5066208;28;20297;-71
2022/06/13 05:55:09;;;;;;;;;;;;;;;-144.99;99.12;52276.88;5068378;28;20419;-71
2022/06/13 05:57:35;;;;;;;;;;;;;;;-144.99;98.72;52264.66;5074161;28;19935;-71
2022/06/13 06:00:02;;;;;;;;;;;;;;;-144.99;97.42;52309.50;5081338;28;19934;-71
2022/06/13 06:02:28;;;;;;;;;;;;;;;-144.99;97.25;52268.72;5077599;28;20415;-72
2022/06/13 06:04:55;;;;;;;;;;;;;;;-144.99;97.00;52260.56;5073757;28;20053;-72
2022/06/13 06:07:21;;;;;;;;;;;;;;;-144.99;95.88;52293.19;5070514;28;20382;-72
2022/06/13 06:09:49;;;;;;;;;;;;;;;-144.99;96.00;52305.41;5070871;28;20014;-72
2022/06/13 06:12:16;;;;;;;;;;;;;;;-144.99;95.76;52264.66;5075490;28;19928;-72
2022/06/13 06:14:42;;;;;;;;;;;;;;;-144.99;92.67;52276.88;5076541;28;20035;-73
2022/06/13 06:17:08;;;;;;;;;;;;;;;-144.99;93.00;52268.72;5066252;28;20015;-73
2022/06/13 06:19:35;;;;;;;;;;;;;;;-144.99;91.65;52309.50;5070342;28;20007;-71
2022/06/13 06:22:02;;;;;;;;;;;;;;;-144.99;89.88;52260.56;5070888;28;19979;-71
2022/06/13 06:24:28;;;;;;;;;;;;;;;-144.99;89.20;52223.88;5082110;28;19934;-71
2022/06/13 06:26:57;;;;;;;;;;;;;;;-144.99;88.23;52256.50;5077061;28;19956;-71
2022/06/13 06:29:24;;;;;;;;;;;;;;;-144.99;87.60;52280.97;5074887;28;20353;-72
2022/06/13 06:31:51;;;;;;;;;;;;;;;-144.99;88.12;52256.50;5076709;28;19978;-71
2022/06/13 06:34:17;;;;;;;;;;;;;;;-144.99;89.55;52338.03;5070351;28;20361;-71
2022/06/13 06:36:44;;;;;;;;;;;;;;;-144.99;90.73;52289.13;5071647;28;19928;-72
2022/06/13 06:39:10;;;;;;;;;;;;;;;-144.99;89.56;52289.13;5083621;28;19935;-72
2022/06/13 06:41:37;;;;;;;;;;;;;;;-144.99;89.71;52276.88;5068172;28;19928;-72
2022/06/13 06:44:05;;;;;;;;;;;;;;;-144.99;92.24;52305.41;5070767;28;20246;-72
2022/06/13 06:46:31;;;;;;;;;;;;;;;-144.99;94.70;52313.56;5078639;28;19925;-71
2022/06/13 06:48:58;;;;;;;;;;;;;;;-144.99;96.87;52297.25;5077924;28;19928;-71
2022/06/13 06:51:29;;;;;;;;;;;;;;;-144.99;96.49;52313.56;5065009;28;20018;-71
2022/06/13 07:02:14;;;;;;;;;;;;;;;-144.99;100.00;52303.38;5073581;28;19935;-71
2022/06/13 07:04:40;;;;;;;;;;;;;;;-144.99;100.00;52346.19;5079872;28;19932;-71
2022/06/13 07:07:07;;;;;;;;;;;;;;;-144.99;100.00;52338.03;5077338;28;19974;-71
2022/06/13 07:09:33;;;;;;;;;;;;;;;-144.99;100.00;52354.34;5073814;28;19929;-72
2022/06/13 07:12:00;;;;;;;;;;;;;;;-144.99;100.00;52350.25;5080214;28;20392;-72
2022/06/13 07:14:29;;;;;;;;;;;;;;;-144.99;100.00;52325.81;5073671;28;19963;-72
2022/06/13 07:16:57;;;;;;;;;;;;;;;-144.99;100.00;52317.66;5066673;28;20031;-72
2022/06/13 07:19:23;;;;;;;;;;;;;;;-144.99;100.00;52325.81;5076500;28;19928;-72
2022/06/13 07:21:50;;;;;;;;;;;;;;;-144.99;100.00;52333.94;5076449;28;19931;-72
2022/06/13 07:24:16;;;;;;;;;;;;;;;-144.99;100.00;52264.66;4724810;28;9999606;-72
2022/06/13 07:26:43;;;;;;;;;;;;;;;-144.99;100.00;52278.91;5069329;28;19937;-72
2022/06/13 07:29:10;;;;;;;;;;;;;;;-144.99;100.00;52336.00;5067153;28;20261;-72
2022/06/13 07:31:40;;;;;;;;;;;;;;;-144.99;100.00;52313.56;5067118;28;19990;-72
2022/06/13 07:34:07;;;;;;;;;;;;;;;-144.99;100.00;52297.25;5065877;28;20130;-72
2022/06/13 07:36:34;;;;;;;;;;;;;;;-144.99;100.00;52285.03;5065787;28;19964;-72
2022/06/13 07:39:01;;;;;;;;;;;;;;;-144.99;100.00;52291.16;5068409;28;20031;-72
2022/06/13 07:41:27;;;;;;;;;;;;;;;-144.99;100.00;52280.97;5062452;28;19963;-72
2022/06/13 07:43:55;;;;;;;;;;;;;;;-144.99;100.00;52297.25;5067968;28;20125;-72
2022/06/13 07:46:25;;;;;;;;;;;;;;;-144.99;100.00;52338.03;5068426;28;20359;-72
2022/06/13 07:48:53;;;;;;;;;;;;;;;-144.99;100.00;52342.09;5069806;28;19928;-73
2022/06/13 07:51:19;;;;;;;;;;;;;;;-144.99;100.00;52268.72;5062672;28;20023;-72
2022/06/13 07:53:46;;;;;;;;;;;;;;;-144.99;100.00;52325.81;5064121;28;19932;-72
2022/06/13 07:56:13;;;;;;;;;;;;;;;-144.99;100.00;52325.81;5066075;28;19959;-72
2022/06/13 07:58:42;;;;;;;;;;;;;;;-144.99;100.00;52350.25;5070026;28;19932;-72
2022/06/13 08:01:10;;;;;;;;;;;;;;;-144.99;100.00;52323.75;5065886;28;19928;-72
2022/06/13 08:03:37;;;;;;;;;;;;;;;-144.99;100.00;52301.34;5061898;28;19944;-72
2022/06/13 08:06:05;;;;;;;;;;;;;;;-144.99;100.00;52366.56;5065490;28;20347;-72
2022/06/13 08:08:34;;;;;;;;;;;;;;;-144.99;100.00;52333.94;5066507;28;20020;-72
2022/06/13 08:11:03;;;;;;;;;;;;;;;-144.99;100.00;52309.50;5069064;28;19932;-72
2022/06/13 08:13:30;;;;;;;;;;;;;;;-144.99;100.00;52338.03;5066004;28;19958;-72
2022/06/13 08:15:57;;;;;;;;;;;;;;;-144.99;100.00;52354.34;5068594;28;19968;-71
2022/06/13 08:18:24;;;;;;;;;;;;;;;-144.99;100.00;52321.72;5071548;28;19928;-71
2022/06/13 08:20:50;;;;;;;;;;;;;;;-144.99;100.00;52329.88;5070375;28;19928;-71
2022/06/13 08:23:19;;;;;;;;;;;;;;;-144.99;100.00;52325.81;5065970;28;19939;-72
2022/06/13 08:25:46;;;;;;;;;;;;;;;-144.99;100.00;52309.50;5064822;28;19929;-71
2022/06/13 08:28:14;;;;;;;;;;;;;;;-144.99;100.00;52303.38;5063154;28;19928;-71
2022/06/13 08:30:42;;;;;;;;;;;;;;;-144.99;100.00;52313.56;5065597;28;19970;-72
2022/06/13 08:33:09;;;;;;;;;;;;;;;-144.99;100.00;52309.50;5067373;28;19929;-71
2022/06/13 08:35:36;;;;;;;;;;;;;;;-144.99;100.00;52346.19;5070816;28;19924;-72
2022/06/13 08:38:04;;;;;;;;;;;;;;;-144.99;100.00;52280.97;5069946;28;19928;-72
2022/06/13 08:40:35;;;;;;;;;;;;;;;-144.99;100.00;52252.44;5074402;28;19924;-72
2022/06/13 08:43:08;;;;;;;;;;;;;;;-144.99;100.00;52272.81;5072303;28;19931;-72
2022/06/13 08:45:38;;;;;;;;;;;;;;;-144.99;99.40;52252.44;5074517;28;19975;-71
2022/06/13 08:48:08;;;;;;;;;;;;;;;-144.99;98.34;52258.53;5077413;28;19932;-72
2022/06/13 08:50:40;;;;;;;;;;;;;;;-144.99;96.90;52283.00;5072881;28;20442;-72
2022/06/13 08:53:11;;;;;;;;;;;;;;;-144.99;98.54;52276.88;5076173;28;19939;-72
2022/06/13 08:55:44;;;;;;;;;;;;;;;-144.99;99.10;52250.38;5078677;28;19959;-72
2022/06/13 08:58:15;;;;;;;;;;;;;;;-144.99;99.71;52280.97;5073663;28;19982;-72
2022/06/13 09:00:45;;;;;;;;;;;;;;;-144.99;100.00;52272.81;5064491;28;19928;-72
2022/06/13 09:03:15;;;;;;;;;;;;;;;-144.99;98.64;52309.50;5069754;28;20031;-72
2022/06/13 09:05:45;;;;;;;;;;;;;;;-144.99;100.00;52276.88;5078968;28;20458;-72
2022/06/13 09:08:16;;;;;;;;;;;;;;;-144.99;100.00;52260.56;5076874;28;19935;-72
2022/06/13 09:10:48;;;;;;;;;;;;;;;-144.99;100.00;52305.41;5077523;28;19974;-72
2022/06/13 09:13:20;;;;;;;;;;;;;;;-144.99;100.00;52244.28;5071467;28;19936;-72
2022/06/13 09:15:48;;;;;;;;;;;;;;;-144.99;100.00;52276.88;5075172;28;19928;-73
2022/06/13 09:18:17;;;;;;;;;;;;;;;-144.99;100.00;52264.66;5082707;28;20007;-73
2022/06/13 09:20:47;;;;;;;;;;;;;;;-144.99;100.00;52272.81;5064386;28;19924;-74
2022/06/13 09:23:17;;;;;;;;;;;;;;;-144.99;96.38;52280.97;5070583;28;19924;-74
2022/06/13 09:25:47;;;;;;;;;;;;;;;-144.99;95.53;52260.56;5078794;28;20018;-73
2022/06/13 09:28:19;;;;;;;;;;;;;;;-144.99;92.84;52248.34;5076509;28;19924;-73
2022/06/13 09:30:48;;;;;;;;;;;;;;;-144.99;92.47;52232.03;5066120;28;20151;-74
2022/06/13 09:33:17;;;;;;;;;;;;;;;-144.99;87.81;52248.34;5103505;22;19974;-66
2022/06/13 09:35:46;;;;;;;;;;;;;;;-144.99;82.55;52227.97;5102707;28;19927;-67
2022/06/13 09:38:19;;;;;;;;;;;;;;;-144.99;79.07;52248.34;5096380;28;20255;-67
2022/06/13 09:40:52;;;;;;;;;;;;;;;-144.99;77.30;52268.72;5094723;28;19923;-66
2022/06/13 09:43:25;;;;;;;;;;;;;;;-144.99;72.66;52197.41;5107076;28;19976;-66
2022/06/13 09:45:57;;;;;;;;;;;;;;;-144.99;75.65;52256.50;5106364;28;19966;-62
2022/06/13 09:48:32;;;;;;;;;;;;;;;-144.99;75.34;52268.72;5105967;28;19931;-62
2022/06/13 09:51:08;;;;;;;;;;;;;;;-144.99;73.39;52234.09;5099280;28;19931;-63
2022/06/13 09:53:38;;;;;;;;;;;;;;;-144.99;70.34;52203.50;5111207;27;19927;-63
2022/06/13 09:56:09;;;;;;;;;;;;;;;-144.99;67.86;52203.50;5106622;27;19934;-63
2022/06/13 09:58:43;;;;;;;;;;;;;;;-144.99;67.71;52187.19;5110640;28;19931;-64
2022/06/13 10:01:13;;;;;;;;;;;;;;;-144.99;64.02;52183.13;5111241;27;20056;-63
2022/06/13 10:03:46;;;;;;;;;;;;;;;-144.99;62.92;52183.13;5110262;28;19924;-63
2022/06/13 10:06:18;;;;;;;;;;;;;;;-144.99;62.69;52162.75;5106711;27;20031;-64
2022/06/13 10:08:57;;;;;;;;;;;;;;;-144.99;61.93;52191.28;5113177;27;20010;-62
2022/06/13 10:11:31;;;;;;;;;;;;;;;-144.99;60.06;52199.44;5106894;27;19928;-62
2022/06/13 10:14:09;;;;;;;;;;;;;;;-144.99;59.36;52181.09;5106024;28;19938;-62
2022/06/13 10:16:43;;;;;;;;;;;;;;;-144.99;57.81;52183.13;5109829;28;19942;-62
2022/06/13 10:19:13;;;;;;;;;;;;;;;-144.99;55.13;52162.75;5105848;27;20312;-62
2022/06/13 10:21:43;;;;;;;;;;;;;;;-144.99;56.68;52199.44;5108764;28;20030;-63
2022/06/13 10:24:20;;;;;;;;;;;;;;;-144.99;55.42;52191.28;5116099;27;20019;-63
2022/06/13 10:26:51;;;;;;;;;;;;;;;-144.99;56.55;52183.13;5128595;27;20008;-62
2022/06/13 10:29:45;;;;;;;;;;;;;;;-144.99;54.18;52097.53;5111525;27;20011;-62
2022/06/13 10:32:17;;;;;;;;;;;;;;;-144.99;51.93;52158.66;5065211;28;20026;-63
2022/06/13 10:34:50;;;;;;;;;;;;;;;-144.99;53.91;52195.34;5109337;28;19966;-63
2022/06/13 10:37:20;;;;;;;;;;;;;;;-144.99;52.39;52162.75;5109573;28;19967;-62
2022/06/13 10:39:47;;;;;;;;;;;;;;;-144.99;52.88;52152.56;5114637;27;19979;-63
2022/06/13 10:42:16;;;;;;;;;;;;;;;-144.99;52.71;52105.69;5116225;27;20408;-62
2022/06/13 10:44:43;;;;;;;;;;;;;;;-144.99;51.16;52183.13;5109417;28;20414;-63
2022/06/13 10:47:13;;;;;;;;;;;;;;;-144.99;49.56;52134.22;5109183;27;20015;-63
2022/06/13 10:49:43;;;;;;;;;;;;;;;-144.99;48.85;52117.91;5107302;27;20372;-63
2022/06/13 10:52:14;;;;;;;;;;;;;;;-144.99;49.11;52158.66;5112114;27;19928;-63
2022/06/13 10:54:44;;;;;;;;;;;;;;;-144.99;48.48;52126.06;5107355;28;19938;-63
2022/06/13 10:57:14;;;;;;;;;;;;;;;-144.99;47.12;52109.75;5106068;28;20022;-64
2022/06/13 10:59:42;;;;;;;;;;;;;;;-144.99;48.51;52154.59;5105798;27;19963;-63
2022/06/13 11:02:23;;;;;;;;;;;;;;;-144.99;47.17;52134.22;5108433;28;20051;-61
2022/06/13 11:05:04;;;;;;;;;;;;;;;-144.99;45.15;52077.16;5100266;28;19963;-63
2022/06/13 11:07:31;;;;;;;;;;;;;;;-144.99;44.40;52089.38;5109059;27;19927;-63
2022/06/13 11:09:58;;;;;;;;;;;;;;;-144.99;44.26;52109.75;5124838;27;20030;-63
2022/06/13 11:12:27;;;;;;;;;;;;;;;-144.99;44.39;52146.44;5112938;27;20361;-63
2022/06/13 11:23:15;;;;;;;;;;;;;;;-144.99;44.13;52113.84;5101212;28;20464;-63
2022/06/13 11:25:42;;;;;;;;;;;;;;;-144.99;45.23;52117.91;5117851;27;19979;-64
2022/06/13 11:28:12;;;;;;;;;;;;;;;-144.99;42.76;52183.13;5128525;27;19996;-62
2022/06/13 11:30:42;;;;;;;;;;;;;;;-144.99;43.72;52085.31;5128763;27;19927;-63
2022/06/13 11:33:14;;;;;;;;;;;;;;;-144.99;44.08;52085.31;5124876;27;19950;-62
2022/06/13 11:35:42;;;;;;;;;;;;;;;-144.99;44.04;52179.06;5102632;27;19934;-62
2022/06/13 11:38:14;;;;;;;;;;;;;;;-144.99;43.19;52093.44;5128950;27;19928;-62
2022/06/13 11:40:41;;;;;;;;;;;;;;;-144.99;44.32;52093.44;5128519;27;20021;-62
2022/06/13 11:43:17;;;;;;;;;;;;;;;-144.99;43.91;52146.44;5120268;27;19992;-62
2022/06/13 11:45:53;;;;;;;;;;;;;;;-144.99;42.93;52170.91;5107627;28;19971;-63
2022/06/13 11:48:20;;;;;;;;;;;;;;;-144.99;43.07;52162.75;5108660;28;19955;-63
2022/06/13 11:50:46;;;;;;;;;;;;;;;-144.99;42.99;52134.22;5108213;28;20086;-63
2022/06/13 11:56:00;;;;;;;;;;;;;;;-144.99;44.29;52158.66;5103986;28;20344;-63
2022/06/13 11:58:28;;;;;;;;;;;;;;;-144.99;44.13;52134.22;5108151;28;19973;-63
2022/06/13 12:01:12;;;;;;;;;;;;;;;-144.99;44.88;52109.75;5105930;28;19959;-63
2022/06/13 12:03:42;;;;;;;;;;;;;;;-144.99;43.75;52111.78;5102437;28;19960;-63
2022/06/13 12:06:10;;;;;;;;;;;;;;;-144.99;43.63;52117.91;5104797;27;19936;-63
2022/06/13 12:08:37;;;;;;;;;;;;;;;-144.99;43.22;52115.88;5101948;27;19958;-63
2022/06/13 12:11:06;;;;;;;;;;;;;;;-144.99;42.73;52130.13;5110361;27;19935;-63
2022/06/13 12:13:33;;;;;;;;;;;;;;;-144.99;42.95;52101.59;5105903;27;19932;-63
2022/06/13 12:16:12;;;;;;;;;;;;;;;-144.99;42.77;52126.06;5107800;27;20026;-63
2022/06/13 12:18:43;;;;;;;;;;;;;;;-144.99;42.77;52085.31;5103741;27;19934;-63
2022/06/13 12:21:14;;;;;;;;;;;;;;;-144.99;41.60;52105.69;5107418;27;20416;-63
2022/06/13 12:23:46;;;;;;;;;;;;;;;-144.99;42.16;52130.13;5107227;28;19959;-62
2022/06/13 12:26:14;;;;;;;;;;;;;;;-144.99;41.91;52109.75;5117612;27;19934;-64
2022/06/13 12:28:48;;;;;;;;;;;;;;;-144.99;42.21;52105.69;5121296;27;20276;-63
2022/06/13 12:31:20;;;;;;;;;;;;;;;-144.99;41.45;52093.44;5106023;27;20008;-63
2022/06/13 12:33:53;;;;;;;;;;;;;;;-144.99;42.75;52121.97;5102494;28;20407;-63
2022/06/13 12:36:31;;;;;;;;;;;;;;;-144.99;42.60;52130.13;5107484;28;19934;-64
2022/06/13 12:39:12;;;;;;;;;;;;;;;-144.99;43.54;52158.66;5107775;28;20022;-63
2022/06/13 12:41:43;;;;;;;;;;;;;;;-144.99;44.04;52211.66;5105761;28;19934;-64
2022/06/13 12:44:23;;;;;;;;;;;;;;;-144.99;42.20;52138.28;5106501;28;20408;-63
2022/06/13 12:46:59;;;;;;;;;;;;;;;-144.99;41.96;52183.13;5107030;28;20022;-63
2022/06/13 12:49:45;;;;;;;;;;;;;;;-144.99;41.83;52097.53;5107729;28;20014;-63
2022/06/13 12:52:17;;;;;;;;;;;;;;;-144.99;41.87;52142.38;5106259;27;19924;-63
2022/06/13 12:54:50;;;;;;;;;;;;;;;-144.99;40.56;52097.53;5122842;27;19950;-63
2022/06/13 12:57:32;;;;;;;;;;;;;;;-144.99;39.88;52130.13;5122841;27;19928;-64
2022/06/13 13:00:02;;;;;;;;;;;;;;;-144.99;41.47;52152.56;5109973;27;19923;-63
2022/06/13 13:02:38;;;;;;;;;;;;;;;-144.99;42.48;52166.81;5106341;28;19935;-62